sensor_id;sensor_type;location;lat;lon;timestamp;P1;durP1;ratioP1;P2;durP2;ratioP2
4636;SDS011;2331;48.806;9.140;2022-12-18T00:01:58;59.65;;;31.25;;
4636;SDS011;2331;48.806;9.140;2022-12-18T00:04:25;57.83;;;29.73;;
4636;SDS011;2331;48.806;9.140;2022-12-18T00:06:54;57.10;;;28.80;;
4636;SDS011;2331;48.806;9.140;2022-12-18T00:09:21;62.90;;;31.90;;
4636;SDS011;2331;48.806;9.140;2022-12-18T00:11:48;55.80;;;29.55;;
4636;SDS011;2331;48.806;9.140;2022-12-18T00:14:15;62.47;;;31.65;;
4636;SDS011;2331;48.806;9.140;2022-12-18T00:16:43;58.22;;;30.75;;
4636;SDS011;2331;48.806;9.140;2022-12-18T00:19:11;57.88;;;29.17;;
4636;SDS011;2331;48.806;9.140;2022-12-18T00:21:39;58.42;;;30.70;;
4636;SDS011;2331;48.806;9.140;2022-12-18T00:24:07;58.72;;;29.40;;
4636;SDS011;2331;48.806;9.140;2022-12-18T00:26:35;55.47;;;29.48;;
4636;SDS011;2331;48.806;9.140;2022-12-18T00:29:04;56.70;;;28.58;;
4636;SDS011;2331;48.806;9.140;2022-12-18T00:31:32;60.53;;;30.25;;
4636;SDS011;2331;48.806;9.140;2022-12-18T00:34:00;61.78;;;30.92;;
4636;SDS011;2331;48.806;9.140;2022-12-18T00:36:28;58.55;;;30.25;;
4636;SDS011;2331;48.806;9.140;2022-12-18T00:38:57;57.53;;;29.42;;
4636;SDS011;2331;48.806;9.140;2022-12-18T00:41:26;66.75;;;32.13;;
4636;SDS011;2331;48.806;9.140;2022-12-18T00:44:11;59.08;;;30.75;;
4636;SDS011;2331;48.806;9.140;2022-12-18T00:46:39;61.33;;;31.50;;
4636;SDS011;2331;48.806;9.140;2022-12-18T00:49:06;64.15;;;32.45;;
4636;SDS011;2331;48.806;9.140;2022-12-18T00:51:33;66.85;;;33.97;;
4636;SDS011;2331;48.806;9.140;2022-12-18T00:54:00;58.40;;;30.73;;
4636;SDS011;2331;48.806;9.140;2022-12-18T00:56:28;65.32;;;33.50;;
4636;SDS011;2331;48.806;9.140;2022-12-18T00:58:54;58.10;;;31.13;;
4636;SDS011;2331;48.806;9.140;2022-12-18T01:01:21;68.65;;;32.35;;
4636;SDS011;2331;48.806;9.140;2022-12-18T01:03:48;62.63;;;30.75;;
4636;SDS011;2331;48.806;9.140;2022-12-18T01:06:15;58.53;;;29.60;;
4636;SDS011;2331;48.806;9.140;2022-12-18T01:08:42;59.10;;;31.02;;
4636;SDS011;2331;48.806;9.140;2022-12-18T01:11:10;61.38;;;31.15;;
4636;SDS011;2331;48.806;9.140;2022-12-18T01:13:40;68.30;;;32.95;;
4636;SDS011;2331;48.806;9.140;2022-12-18T01:16:07;63.55;;;31.60;;
4636;SDS011;2331;48.806;9.140;2022-12-18T01:18:34;68.05;;;32.97;;
4636;SDS011;2331;48.806;9.140;2022-12-18T01:21:05;71.03;;;32.15;;
4636;SDS011;2331;48.806;9.140;2022-12-18T01:23:32;60.50;;;31.52;;
4636;SDS011;2331;48.806;9.140;2022-12-18T01:26:03;62.47;;;30.50;;
4636;SDS011;2331;48.806;9.140;2022-12-18T01:28:31;61.72;;;29.90;;
4636;SDS011;2331;48.806;9.140;2022-12-18T01:31:09;58.00;;;30.60;;
4636;SDS011;2331;48.806;9.140;2022-12-18T01:33:40;66.68;;;32.65;;
4636;SDS011;2331;48.806;9.140;2022-12-18T01:36:08;57.78;;;29.80;;
4636;SDS011;2331;48.806;9.140;2022-12-18T01:38:34;61.42;;;30.02;;
4636;SDS011;2331;48.806;9.140;2022-12-18T01:41:03;58.83;;;31.23;;
4636;SDS011;2331;48.806;9.140;2022-12-18T01:43:46;63.35;;;31.45;;
4636;SDS011;2331;48.806;9.140;2022-12-18T01:46:17;64.50;;;33.78;;
4636;SDS011;2331;48.806;9.140;2022-12-18T01:48:45;65.10;;;32.83;;
4636;SDS011;2331;48.806;9.140;2022-12-18T01:51:14;66.15;;;30.90;;
4636;SDS011;2331;48.806;9.140;2022-12-18T01:53:41;69.93;;;34.30;;
4636;SDS011;2331;48.806;9.140;2022-12-18T01:56:11;65.70;;;32.50;;
4636;SDS011;2331;48.806;9.140;2022-12-18T01:58:41;61.80;;;31.90;;
4636;SDS011;2331;48.806;9.140;2022-12-18T02:01:14;63.20;;;32.03;;
4636;SDS011;2331;48.806;9.140;2022-12-18T02:03:42;65.50;;;32.08;;
4636;SDS011;2331;48.806;9.140;2022-12-18T02:06:13;67.40;;;32.85;;
4636;SDS011;2331;48.806;9.140;2022-12-18T02:08:44;61.90;;;30.90;;
4636;SDS011;2331;48.806;9.140;2022-12-18T02:11:17;65.47;;;33.15;;
4636;SDS011;2331;48.806;9.140;2022-12-18T02:13:50;63.97;;;31.48;;
4636;SDS011;2331;48.806;9.140;2022-12-18T02:16:24;67.68;;;32.45;;
4636;SDS011;2331;48.806;9.140;2022-12-18T02:19:03;63.22;;;31.02;;
4636;SDS011;2331;48.806;9.140;2022-12-18T02:21:36;67.78;;;31.48;;
4636;SDS011;2331;48.806;9.140;2022-12-18T02:24:17;59.97;;;30.17;;
4636;SDS011;2331;48.806;9.140;2022-12-18T02:26:52;64.10;;;32.38;;
4636;SDS011;2331;48.806;9.140;2022-12-18T02:29:22;59.58;;;29.48;;
4636;SDS011;2331;48.806;9.140;2022-12-18T02:31:53;60.65;;;30.85;;
4636;SDS011;2331;48.806;9.140;2022-12-18T02:34:25;65.57;;;32.67;;
4636;SDS011;2331;48.806;9.140;2022-12-18T02:36:54;64.30;;;31.35;;
4636;SDS011;2331;48.806;9.140;2022-12-18T02:39:23;61.28;;;31.15;;
4636;SDS011;2331;48.806;9.140;2022-12-18T02:41:54;63.13;;;30.58;;
4636;SDS011;2331;48.806;9.140;2022-12-18T02:44:21;59.20;;;31.10;;
4636;SDS011;2331;48.806;9.140;2022-12-18T02:46:48;62.47;;;31.58;;
4636;SDS011;2331;48.806;9.140;2022-12-18T02:49:20;60.47;;;30.67;;
4636;SDS011;2331;48.806;9.140;2022-12-18T02:52:00;61.78;;;31.83;;
4636;SDS011;2331;48.806;9.140;2022-12-18T02:54:37;60.47;;;30.05;;
4636;SDS011;2331;48.806;9.140;2022-12-18T02:57:14;59.97;;;30.15;;
4636;SDS011;2331;48.806;9.140;2022-12-18T02:59:48;64.68;;;30.55;;
4636;SDS011;2331;48.806;9.140;2022-12-18T03:02:24;58.85;;;30.90;;
4636;SDS011;2331;48.806;9.140;2022-12-18T03:04:57;64.70;;;31.77;;
4636;SDS011;2331;48.806;9.140;2022-12-18T03:07:32;61.55;;;31.48;;
4636;SDS011;2331;48.806;9.140;2022-12-18T03:10:03;64.25;;;30.33;;
4636;SDS011;2331;48.806;9.140;2022-12-18T03:12:34;57.50;;;29.52;;
4636;SDS011;2331;48.806;9.140;2022-12-18T03:15:04;63.50;;;31.88;;
4636;SDS011;2331;48.806;9.140;2022-12-18T03:17:35;58.13;;;29.67;;
4636;SDS011;2331;48.806;9.140;2022-12-18T03:20:05;59.17;;;31.83;;
4636;SDS011;2331;48.806;9.140;2022-12-18T03:22:36;55.42;;;29.90;;
4636;SDS011;2331;48.806;9.140;2022-12-18T03:25:05;57.60;;;29.95;;
4636;SDS011;2331;48.806;9.140;2022-12-18T03:27:39;58.92;;;27.88;;
4636;SDS011;2331;48.806;9.140;2022-12-18T03:30:12;63.85;;;29.58;;
4636;SDS011;2331;48.806;9.140;2022-12-18T03:32:41;69.03;;;32.20;;
4636;SDS011;2331;48.806;9.140;2022-12-18T03:35:11;56.05;;;28.70;;
4636;SDS011;2331;48.806;9.140;2022-12-18T03:37:42;54.13;;;28.20;;
4636;SDS011;2331;48.806;9.140;2022-12-18T03:40:09;50.53;;;25.83;;
4636;SDS011;2331;48.806;9.140;2022-12-18T03:42:39;55.35;;;27.75;;
4636;SDS011;2331;48.806;9.140;2022-12-18T03:45:13;55.67;;;27.95;;
4636;SDS011;2331;48.806;9.140;2022-12-18T03:47:47;56.03;;;27.67;;
4636;SDS011;2331;48.806;9.140;2022-12-18T03:50:37;60.90;;;27.80;;
4636;SDS011;2331;48.806;9.140;2022-12-18T03:53:11;55.95;;;27.38;;
4636;SDS011;2331;48.806;9.140;2022-12-18T03:55:43;54.85;;;27.23;;
4636;SDS011;2331;48.806;9.140;2022-12-18T03:58:16;60.25;;;28.65;;
4636;SDS011;2331;48.806;9.140;2022-12-18T04:00:45;54.03;;;27.27;;
4636;SDS011;2331;48.806;9.140;2022-12-18T04:03:15;55.47;;;29.58;;
4636;SDS011;2331;48.806;9.140;2022-12-18T04:05:44;51.13;;;27.45;;
4636;SDS011;2331;48.806;9.140;2022-12-18T04:08:13;54.80;;;27.40;;
4636;SDS011;2331;48.806;9.140;2022-12-18T04:10:41;60.38;;;30.05;;
4636;SDS011;2331;48.806;9.140;2022-12-18T04:13:08;50.60;;;26.27;;
4636;SDS011;2331;48.806;9.140;2022-12-18T04:15:36;51.53;;;26.98;;
4636;SDS011;2331;48.806;9.140;2022-12-18T04:18:04;57.35;;;28.30;;
4636;SDS011;2331;48.806;9.140;2022-12-18T04:20:30;49.33;;;25.45;;
4636;SDS011;2331;48.806;9.140;2022-12-18T04:22:57;54.58;;;24.92;;
4636;SDS011;2331;48.806;9.140;2022-12-18T04:25:24;51.15;;;26.08;;
4636;SDS011;2331;48.806;9.140;2022-12-18T04:27:51;49.08;;;25.80;;
4636;SDS011;2331;48.806;9.140;2022-12-18T04:30:17;53.10;;;26.25;;
4636;SDS011;2331;48.806;9.140;2022-12-18T04:32:45;50.55;;;25.20;;
4636;SDS011;2331;48.806;9.140;2022-12-18T04:35:12;49.50;;;24.45;;
4636;SDS011;2331;48.806;9.140;2022-12-18T04:37:39;53.03;;;27.17;;
4636;SDS011;2331;48.806;9.140;2022-12-18T04:40:06;58.88;;;27.35;;
4636;SDS011;2331;48.806;9.140;2022-12-18T04:42:33;49.33;;;26.15;;
4636;SDS011;2331;48.806;9.140;2022-12-18T04:45:00;51.08;;;25.15;;
4636;SDS011;2331;48.806;9.140;2022-12-18T04:47:26;50.10;;;24.50;;
4636;SDS011;2331;48.806;9.140;2022-12-18T04:49:54;49.70;;;25.77;;
4636;SDS011;2331;48.806;9.140;2022-12-18T04:52:22;47.08;;;26.23;;
4636;SDS011;2331;48.806;9.140;2022-12-18T04:54:48;49.90;;;26.13;;
4636;SDS011;2331;48.806;9.140;2022-12-18T04:57:15;48.25;;;25.48;;
4636;SDS011;2331;48.806;9.140;2022-12-18T04:59:42;49.72;;;26.42;;
4636;SDS011;2331;48.806;9.140;2022-12-18T05:02:09;47.42;;;24.85;;
4636;SDS011;2331;48.806;9.140;2022-12-18T05:04:36;42.78;;;23.30;;
4636;SDS011;2331;48.806;9.140;2022-12-18T05:07:04;48.80;;;24.35;;
4636;SDS011;2331;48.806;9.140;2022-12-18T05:09:31;45.90;;;24.55;;
4636;SDS011;2331;48.806;9.140;2022-12-18T05:11:58;47.25;;;24.77;;
4636;SDS011;2331;48.806;9.140;2022-12-18T05:14:25;46.53;;;25.10;;
4636;SDS011;2331;48.806;9.140;2022-12-18T05:16:52;48.28;;;24.00;;
4636;SDS011;2331;48.806;9.140;2022-12-18T05:19:19;44.72;;;24.48;;
4636;SDS011;2331;48.806;9.140;2022-12-18T05:21:45;44.05;;;23.65;;
4636;SDS011;2331;48.806;9.140;2022-12-18T05:24:15;48.47;;;25.50;;
4636;SDS011;2331;48.806;9.140;2022-12-18T05:26:41;49.63;;;24.85;;
4636;SDS011;2331;48.806;9.140;2022-12-18T05:29:08;48.42;;;24.20;;
4636;SDS011;2331;48.806;9.140;2022-12-18T05:31:37;44.65;;;23.35;;
4636;SDS011;2331;48.806;9.140;2022-12-18T05:34:04;45.38;;;23.85;;
4636;SDS011;2331;48.806;9.140;2022-12-18T05:36:30;46.88;;;24.05;;
4636;SDS011;2331;48.806;9.140;2022-12-18T05:38:57;47.47;;;23.35;;
4636;SDS011;2331;48.806;9.140;2022-12-18T05:41:26;40.15;;;22.40;;
4636;SDS011;2331;48.806;9.140;2022-12-18T05:43:53;42.95;;;22.90;;
4636;SDS011;2331;48.806;9.140;2022-12-18T05:46:20;42.63;;;23.50;;
4636;SDS011;2331;48.806;9.140;2022-12-18T05:48:47;43.97;;;23.08;;
4636;SDS011;2331;48.806;9.140;2022-12-18T05:51:15;41.85;;;21.38;;
4636;SDS011;2331;48.806;9.140;2022-12-18T05:53:44;47.22;;;24.38;;
4636;SDS011;2331;48.806;9.140;2022-12-18T05:56:12;43.70;;;23.70;;
4636;SDS011;2331;48.806;9.140;2022-12-18T05:58:42;46.65;;;24.08;;
4636;SDS011;2331;48.806;9.140;2022-12-18T06:01:10;48.33;;;23.65;;
4636;SDS011;2331;48.806;9.140;2022-12-18T06:03:39;42.65;;;22.27;;
4636;SDS011;2331;48.806;9.140;2022-12-18T06:06:12;46.85;;;23.95;;
4636;SDS011;2331;48.806;9.140;2022-12-18T06:08:40;41.88;;;21.83;;
4636;SDS011;2331;48.806;9.140;2022-12-18T06:11:07;45.90;;;23.35;;
4636;SDS011;2331;48.806;9.140;2022-12-18T06:13:33;48.72;;;24.80;;
4636;SDS011;2331;48.806;9.140;2022-12-18T06:16:02;49.05;;;24.00;;
4636;SDS011;2331;48.806;9.140;2022-12-18T06:18:29;45.35;;;23.23;;
4636;SDS011;2331;48.806;9.140;2022-12-18T06:20:56;43.70;;;22.88;;
4636;SDS011;2331;48.806;9.140;2022-12-18T06:23:24;43.53;;;22.90;;
4636;SDS011;2331;48.806;9.140;2022-12-18T06:25:51;40.85;;;22.85;;
4636;SDS011;2331;48.806;9.140;2022-12-18T06:28:18;47.15;;;21.92;;
4636;SDS011;2331;48.806;9.140;2022-12-18T06:30:46;44.55;;;21.80;;
4636;SDS011;2331;48.806;9.140;2022-12-18T06:33:14;45.80;;;22.63;;
4636;SDS011;2331;48.806;9.140;2022-12-18T06:35:42;48.25;;;23.83;;
4636;SDS011;2331;48.806;9.140;2022-12-18T06:38:08;41.65;;;22.50;;
4636;SDS011;2331;48.806;9.140;2022-12-18T06:40:36;42.13;;;22.58;;
4636;SDS011;2331;48.806;9.140;2022-12-18T06:43:03;41.28;;;22.15;;
4636;SDS011;2331;48.806;9.140;2022-12-18T06:45:30;41.22;;;21.77;;
4636;SDS011;2331;48.806;9.140;2022-12-18T06:47:57;45.17;;;23.63;;
4636;SDS011;2331;48.806;9.140;2022-12-18T06:50:25;39.70;;;21.60;;
4636;SDS011;2331;48.806;9.140;2022-12-18T06:52:52;42.72;;;22.10;;
4636;SDS011;2331;48.806;9.140;2022-12-18T06:55:18;43.10;;;22.17;;
4636;SDS011;2331;48.806;9.140;2022-12-18T06:57:45;41.25;;;22.52;;
4636;SDS011;2331;48.806;9.140;2022-12-18T07:00:12;43.72;;;22.48;;
4636;SDS011;2331;48.806;9.140;2022-12-18T07:02:39;41.95;;;22.27;;
4636;SDS011;2331;48.806;9.140;2022-12-18T07:05:06;44.03;;;22.98;;
4636;SDS011;2331;48.806;9.140;2022-12-18T07:07:35;45.22;;;23.20;;
4636;SDS011;2331;48.806;9.140;2022-12-18T07:10:01;42.00;;;21.02;;
4636;SDS011;2331;48.806;9.140;2022-12-18T07:12:28;43.55;;;23.55;;
4636;SDS011;2331;48.806;9.140;2022-12-18T07:14:55;39.03;;;21.80;;
4636;SDS011;2331;48.806;9.140;2022-12-18T07:17:22;40.88;;;22.10;;
4636;SDS011;2331;48.806;9.140;2022-12-18T07:19:49;47.00;;;22.85;;
4636;SDS011;2331;48.806;9.140;2022-12-18T07:22:15;44.65;;;21.40;;
4636;SDS011;2331;48.806;9.140;2022-12-18T07:24:43;38.17;;;21.65;;
4636;SDS011;2331;48.806;9.140;2022-12-18T07:27:10;43.78;;;22.30;;
4636;SDS011;2331;48.806;9.140;2022-12-18T07:29:37;41.55;;;21.15;;
4636;SDS011;2331;48.806;9.140;2022-12-18T07:32:04;42.30;;;22.65;;
4636;SDS011;2331;48.806;9.140;2022-12-18T07:34:32;43.97;;;22.65;;
4636;SDS011;2331;48.806;9.140;2022-12-18T07:36:58;43.47;;;22.42;;
4636;SDS011;2331;48.806;9.140;2022-12-18T07:39:25;44.60;;;22.77;;
4636;SDS011;2331;48.806;9.140;2022-12-18T07:41:53;41.10;;;21.50;;
4636;SDS011;2331;48.806;9.140;2022-12-18T07:44:34;39.20;;;21.38;;
4636;SDS011;2331;48.806;9.140;2022-12-18T07:47:01;38.30;;;20.80;;
4636;SDS011;2331;48.806;9.140;2022-12-18T07:49:27;39.97;;;21.13;;
4636;SDS011;2331;48.806;9.140;2022-12-18T07:51:54;43.10;;;20.45;;
4636;SDS011;2331;48.806;9.140;2022-12-18T07:54:21;41.05;;;20.65;;
4636;SDS011;2331;48.806;9.140;2022-12-18T07:56:48;41.78;;;21.40;;
4636;SDS011;2331;48.806;9.140;2022-12-18T07:59:17;44.42;;;21.83;;
4636;SDS011;2331;48.806;9.140;2022-12-18T08:01:44;40.83;;;20.98;;
4636;SDS011;2331;48.806;9.140;2022-12-18T08:04:11;40.85;;;21.63;;
4636;SDS011;2331;48.806;9.140;2022-12-18T08:06:37;49.45;;;23.30;;
4636;SDS011;2331;48.806;9.140;2022-12-18T08:09:04;46.22;;;23.50;;
4636;SDS011;2331;48.806;9.140;2022-12-18T08:11:31;45.38;;;24.20;;
4636;SDS011;2331;48.806;9.140;2022-12-18T08:13:58;42.42;;;22.30;;
4636;SDS011;2331;48.806;9.140;2022-12-18T08:16:26;40.47;;;21.30;;
4636;SDS011;2331;48.806;9.140;2022-12-18T08:18:53;46.25;;;22.65;;
4636;SDS011;2331;48.806;9.140;2022-12-18T08:21:21;42.13;;;21.60;;
4636;SDS011;2331;48.806;9.140;2022-12-18T08:23:49;41.97;;;20.85;;
4636;SDS011;2331;48.806;9.140;2022-12-18T08:26:17;41.17;;;21.83;;
4636;SDS011;2331;48.806;9.140;2022-12-18T08:28:43;40.38;;;21.83;;
4636;SDS011;2331;48.806;9.140;2022-12-18T08:31:10;44.75;;;24.10;;
4636;SDS011;2331;48.806;9.140;2022-12-18T08:33:38;45.63;;;23.67;;
4636;SDS011;2331;48.806;9.140;2022-12-18T08:36:05;48.92;;;24.77;;
4636;SDS011;2331;48.806;9.140;2022-12-18T08:38:33;48.33;;;25.40;;
4636;SDS011;2331;48.806;9.140;2022-12-18T08:41:00;55.35;;;27.88;;
4636;SDS011;2331;48.806;9.140;2022-12-18T08:43:27;52.13;;;27.50;;
4636;SDS011;2331;48.806;9.140;2022-12-18T08:46:12;51.75;;;27.23;;
4636;SDS011;2331;48.806;9.140;2022-12-18T08:48:40;54.13;;;28.58;;
4636;SDS011;2331;48.806;9.140;2022-12-18T08:51:07;51.63;;;26.70;;
4636;SDS011;2331;48.806;9.140;2022-12-18T08:53:34;52.88;;;28.58;;
4636;SDS011;2331;48.806;9.140;2022-12-18T08:56:01;58.45;;;30.92;;
4636;SDS011;2331;48.806;9.140;2022-12-18T08:58:28;52.83;;;26.85;;
4636;SDS011;2331;48.806;9.140;2022-12-18T09:00:59;58.20;;;29.20;;
4636;SDS011;2331;48.806;9.140;2022-12-18T09:03:26;56.22;;;30.23;;
4636;SDS011;2331;48.806;9.140;2022-12-18T09:05:54;62.15;;;29.10;;
4636;SDS011;2331;48.806;9.140;2022-12-18T09:08:21;55.33;;;28.52;;
4636;SDS011;2331;48.806;9.140;2022-12-18T09:10:48;57.15;;;30.90;;
4636;SDS011;2331;48.806;9.140;2022-12-18T09:13:16;56.97;;;30.13;;
4636;SDS011;2331;48.806;9.140;2022-12-18T09:15:43;59.63;;;30.80;;
4636;SDS011;2331;48.806;9.140;2022-12-18T09:18:11;63.13;;;32.13;;
4636;SDS011;2331;48.806;9.140;2022-12-18T09:20:39;66.50;;;31.73;;
4636;SDS011;2331;48.806;9.140;2022-12-18T09:23:07;61.72;;;31.85;;
4636;SDS011;2331;48.806;9.140;2022-12-18T09:25:35;64.95;;;32.70;;
4636;SDS011;2331;48.806;9.140;2022-12-18T09:28:03;60.53;;;30.92;;
4636;SDS011;2331;48.806;9.140;2022-12-18T09:30:32;61.63;;;31.63;;
4636;SDS011;2331;48.806;9.140;2022-12-18T09:32:59;57.13;;;27.40;;
4636;SDS011;2331;48.806;9.140;2022-12-18T09:35:26;61.20;;;29.60;;
4636;SDS011;2331;48.806;9.140;2022-12-18T09:37:53;56.47;;;27.40;;
4636;SDS011;2331;48.806;9.140;2022-12-18T09:40:22;64.68;;;30.75;;
4636;SDS011;2331;48.806;9.140;2022-12-18T09:42:53;61.00;;;29.98;;
4636;SDS011;2331;48.806;9.140;2022-12-18T09:45:22;57.28;;;29.10;;
4636;SDS011;2331;48.806;9.140;2022-12-18T09:47:50;58.03;;;28.20;;
4636;SDS011;2331;48.806;9.140;2022-12-18T09:50:22;62.70;;;29.73;;
4636;SDS011;2331;48.806;9.140;2022-12-18T09:52:54;56.10;;;29.13;;
4636;SDS011;2331;48.806;9.140;2022-12-18T09:55:25;54.60;;;27.40;;
4636;SDS011;2331;48.806;9.140;2022-12-18T09:57:57;55.42;;;29.17;;
4636;SDS011;2331;48.806;9.140;2022-12-18T10:00:30;57.78;;;28.70;;
4636;SDS011;2331;48.806;9.140;2022-12-18T10:02:59;59.38;;;28.75;;
4636;SDS011;2331;48.806;9.140;2022-12-18T10:05:32;63.78;;;29.92;;
4636;SDS011;2331;48.806;9.140;2022-12-18T10:08:05;55.80;;;28.63;;
4636;SDS011;2331;48.806;9.140;2022-12-18T10:10:40;55.95;;;30.35;;
4636;SDS011;2331;48.806;9.140;2022-12-18T10:13:15;58.92;;;30.42;;
4636;SDS011;2331;48.806;9.140;2022-12-18T10:15:53;56.58;;;28.58;;
4636;SDS011;2331;48.806;9.140;2022-12-18T10:18:29;58.80;;;27.30;;
4636;SDS011;2331;48.806;9.140;2022-12-18T10:21:09;54.05;;;28.13;;
4636;SDS011;2331;48.806;9.140;2022-12-18T10:23:42;62.78;;;27.80;;
4636;SDS011;2331;48.806;9.140;2022-12-18T10:26:16;60.95;;;29.30;;
4636;SDS011;2331;48.806;9.140;2022-12-18T10:28:43;56.90;;;28.55;;
4636;SDS011;2331;48.806;9.140;2022-12-18T10:31:12;58.92;;;27.10;;
4636;SDS011;2331;48.806;9.140;2022-12-18T10:33:42;50.30;;;25.92;;
4636;SDS011;2331;48.806;9.140;2022-12-18T10:36:09;57.10;;;27.67;;
4636;SDS011;2331;48.806;9.140;2022-12-18T10:38:36;53.70;;;27.00;;
4636;SDS011;2331;48.806;9.140;2022-12-18T10:41:04;56.97;;;28.48;;
4636;SDS011;2331;48.806;9.140;2022-12-18T10:43:36;57.50;;;27.63;;
4636;SDS011;2331;48.806;9.140;2022-12-18T10:46:14;50.20;;;25.40;;
4636;SDS011;2331;48.806;9.140;2022-12-18T10:48:48;50.10;;;25.70;;
4636;SDS011;2331;48.806;9.140;2022-12-18T10:51:19;48.40;;;25.05;;
4636;SDS011;2331;48.806;9.140;2022-12-18T10:53:51;49.72;;;26.08;;
4636;SDS011;2331;48.806;9.140;2022-12-18T10:56:21;50.30;;;24.00;;
4636;SDS011;2331;48.806;9.140;2022-12-18T10:58:56;54.22;;;25.60;;
4636;SDS011;2331;48.806;9.140;2022-12-18T11:01:24;55.30;;;25.77;;
4636;SDS011;2331;48.806;9.140;2022-12-18T11:03:58;47.42;;;23.88;;
4636;SDS011;2331;48.806;9.140;2022-12-18T11:06:28;56.65;;;27.25;;
4636;SDS011;2331;48.806;9.140;2022-12-18T11:08:59;50.67;;;24.48;;
4636;SDS011;2331;48.806;9.140;2022-12-18T11:11:27;51.50;;;24.73;;
4636;SDS011;2331;48.806;9.140;2022-12-18T11:13:59;50.25;;;24.50;;
4636;SDS011;2331;48.806;9.140;2022-12-18T11:16:30;49.45;;;24.67;;
4636;SDS011;2331;48.806;9.140;2022-12-18T11:19:08;52.67;;;24.40;;
4636;SDS011;2331;48.806;9.140;2022-12-18T11:21:41;56.92;;;28.05;;
4636;SDS011;2331;48.806;9.140;2022-12-18T11:24:14;57.05;;;28.10;;
4636;SDS011;2331;48.806;9.140;2022-12-18T11:26:45;52.65;;;27.95;;
4636;SDS011;2331;48.806;9.140;2022-12-18T11:29:16;54.45;;;27.70;;
4636;SDS011;2331;48.806;9.140;2022-12-18T11:31:44;55.47;;;28.92;;
4636;SDS011;2331;48.806;9.140;2022-12-18T11:34:11;58.65;;;26.35;;
4636;SDS011;2331;48.806;9.140;2022-12-18T11:36:42;58.83;;;28.52;;
4636;SDS011;2331;48.806;9.140;2022-12-18T11:39:12;52.50;;;24.58;;
4636;SDS011;2331;48.806;9.140;2022-12-18T11:41:46;60.88;;;26.70;;
4636;SDS011;2331;48.806;9.140;2022-12-18T11:44:42;50.90;;;25.63;;
4636;SDS011;2331;48.806;9.140;2022-12-18T11:47:18;49.72;;;26.05;;
4636;SDS011;2331;48.806;9.140;2022-12-18T11:49:51;52.38;;;24.67;;
4636;SDS011;2331;48.806;9.140;2022-12-18T11:52:20;49.40;;;23.42;;
4636;SDS011;2331;48.806;9.140;2022-12-18T11:54:50;47.78;;;23.08;;
4636;SDS011;2331;48.806;9.140;2022-12-18T11:57:21;47.97;;;22.65;;
4636;SDS011;2331;48.806;9.140;2022-12-18T12:00:01;49.47;;;24.00;;
4636;SDS011;2331;48.806;9.140;2022-12-18T12:02:37;49.80;;;23.98;;
4636;SDS011;2331;48.806;9.140;2022-12-18T12:05:30;47.40;;;23.83;;
4636;SDS011;2331;48.806;9.140;2022-12-18T12:08:09;45.80;;;22.73;;
4636;SDS011;2331;48.806;9.140;2022-12-18T12:10:42;48.60;;;24.52;;
4636;SDS011;2331;48.806;9.140;2022-12-18T12:13:22;49.42;;;24.27;;
4636;SDS011;2331;48.806;9.140;2022-12-18T12:16:01;45.92;;;22.75;;
4636;SDS011;2331;48.806;9.140;2022-12-18T12:18:36;44.45;;;21.25;;
4636;SDS011;2331;48.806;9.140;2022-12-18T12:21:20;50.55;;;22.83;;
4636;SDS011;2331;48.806;9.140;2022-12-18T12:23:52;45.22;;;22.88;;
4636;SDS011;2331;48.806;9.140;2022-12-18T12:26:27;44.25;;;20.95;;
4636;SDS011;2331;48.806;9.140;2022-12-18T12:29:09;46.22;;;21.85;;
4636;SDS011;2331;48.806;9.140;2022-12-18T12:31:56;44.25;;;20.92;;
4636;SDS011;2331;48.806;9.140;2022-12-18T12:34:32;42.90;;;20.23;;
4636;SDS011;2331;48.806;9.140;2022-12-18T12:37:07;48.40;;;23.50;;
4636;SDS011;2331;48.806;9.140;2022-12-18T12:39:45;48.03;;;22.85;;
4636;SDS011;2331;48.806;9.140;2022-12-18T12:42:26;47.67;;;23.65;;
4636;SDS011;2331;48.806;9.140;2022-12-18T12:45:18;51.05;;;24.05;;
4636;SDS011;2331;48.806;9.140;2022-12-18T12:47:50;44.03;;;21.17;;
4636;SDS011;2331;48.806;9.140;2022-12-18T12:50:18;45.80;;;21.52;;
4636;SDS011;2331;48.806;9.140;2022-12-18T12:52:47;43.97;;;21.65;;
4636;SDS011;2331;48.806;9.140;2022-12-18T12:55:18;45.47;;;22.10;;
4636;SDS011;2331;48.806;9.140;2022-12-18T12:57:48;45.30;;;21.52;;
4636;SDS011;2331;48.806;9.140;2022-12-18T13:00:22;46.95;;;22.45;;
4636;SDS011;2331;48.806;9.140;2022-12-18T13:02:53;45.45;;;22.35;;
4636;SDS011;2331;48.806;9.140;2022-12-18T13:05:26;48.15;;;22.60;;
4636;SDS011;2331;48.806;9.140;2022-12-18T13:08:01;48.97;;;22.55;;
4636;SDS011;2331;48.806;9.140;2022-12-18T13:10:33;47.05;;;21.13;;
4636;SDS011;2331;48.806;9.140;2022-12-18T13:13:02;47.00;;;21.85;;
4636;SDS011;2331;48.806;9.140;2022-12-18T13:15:31;47.78;;;23.10;;
4636;SDS011;2331;48.806;9.140;2022-12-18T13:18:05;47.50;;;22.77;;
4636;SDS011;2331;48.806;9.140;2022-12-18T13:20:40;50.00;;;22.58;;
4636;SDS011;2331;48.806;9.140;2022-12-18T13:28:55;46.72;;;22.13;;
4636;SDS011;2331;48.806;9.140;2022-12-18T13:34:34;43.15;;;20.42;;
4636;SDS011;2331;48.806;9.140;2022-12-18T13:43:24;43.90;;;21.13;;
4636;SDS011;2331;48.806;9.140;2022-12-18T13:46:03;44.33;;;21.10;;
4636;SDS011;2331;48.806;9.140;2022-12-18T13:48:48;42.60;;;21.27;;
4636;SDS011;2331;48.806;9.140;2022-12-18T13:51:19;37.95;;;19.65;;
4636;SDS011;2331;48.806;9.140;2022-12-18T13:53:48;41.22;;;20.00;;
4636;SDS011;2331;48.806;9.140;2022-12-18T13:56:17;42.05;;;21.40;;
4636;SDS011;2331;48.806;9.140;2022-12-18T14:01:36;41.63;;;20.45;;
4636;SDS011;2331;48.806;9.140;2022-12-18T14:04:10;42.05;;;20.13;;
4636;SDS011;2331;48.806;9.140;2022-12-18T14:06:39;47.63;;;22.42;;
4636;SDS011;2331;48.806;9.140;2022-12-18T14:09:10;50.35;;;23.98;;
4636;SDS011;2331;48.806;9.140;2022-12-18T14:11:39;48.17;;;24.25;;
4636;SDS011;2331;48.806;9.140;2022-12-18T14:14:07;44.72;;;21.63;;
4636;SDS011;2331;48.806;9.140;2022-12-18T14:16:34;52.97;;;23.27;;
4636;SDS011;2331;48.806;9.140;2022-12-18T14:19:02;53.58;;;23.70;;
4636;SDS011;2331;48.806;9.140;2022-12-18T14:21:29;47.45;;;22.85;;
4636;SDS011;2331;48.806;9.140;2022-12-18T14:24:12;53.97;;;24.42;;
4636;SDS011;2331;48.806;9.140;2022-12-18T14:26:41;47.80;;;23.27;;
4636;SDS011;2331;48.806;9.140;2022-12-18T14:29:19;48.67;;;22.75;;
4636;SDS011;2331;48.806;9.140;2022-12-18T14:32:05;49.60;;;23.90;;
4636;SDS011;2331;48.806;9.140;2022-12-18T14:34:33;47.00;;;22.50;;
4636;SDS011;2331;48.806;9.140;2022-12-18T14:36:59;47.25;;;22.00;;
4636;SDS011;2331;48.806;9.140;2022-12-18T14:39:28;47.75;;;23.00;;
4636;SDS011;2331;48.806;9.140;2022-12-18T14:41:54;51.97;;;24.23;;
4636;SDS011;2331;48.806;9.140;2022-12-18T14:44:21;45.70;;;22.58;;
4636;SDS011;2331;48.806;9.140;2022-12-18T14:46:48;50.50;;;22.95;;
4636;SDS011;2331;48.806;9.140;2022-12-18T14:49:19;52.15;;;24.88;;
4636;SDS011;2331;48.806;9.140;2022-12-18T14:51:49;49.65;;;23.48;;
4636;SDS011;2331;48.806;9.140;2022-12-18T14:54:18;51.97;;;23.50;;
4636;SDS011;2331;48.806;9.140;2022-12-18T14:56:48;55.85;;;25.10;;
4636;SDS011;2331;48.806;9.140;2022-12-18T14:59:18;49.33;;;23.20;;
4636;SDS011;2331;48.806;9.140;2022-12-18T15:01:56;52.13;;;24.77;;
4636;SDS011;2331;48.806;9.140;2022-12-18T15:04:26;51.35;;;25.63;;
4636;SDS011;2331;48.806;9.140;2022-12-18T15:07:04;53.30;;;24.30;;
4636;SDS011;2331;48.806;9.140;2022-12-18T15:09:38;50.83;;;24.88;;
4636;SDS011;2331;48.806;9.140;2022-12-18T15:12:15;53.22;;;25.50;;
4636;SDS011;2331;48.806;9.140;2022-12-18T15:14:51;55.28;;;25.83;;
4636;SDS011;2331;48.806;9.140;2022-12-18T15:17:18;50.40;;;24.80;;
4636;SDS011;2331;48.806;9.140;2022-12-18T15:19:48;52.13;;;24.65;;
4636;SDS011;2331;48.806;9.140;2022-12-18T15:22:18;52.25;;;24.10;;
4636;SDS011;2331;48.806;9.140;2022-12-18T15:24:50;51.63;;;24.20;;